createdAt,value
2024-05-09T00:00:39.591Z,86.59
2024-05-09T00:01:36.090Z,86.69
2024-05-09T00:02:36.108Z,86.59
2024-05-09T00:03:36.099Z,86.90
2024-05-09T00:04:36.038Z,86.39
2024-05-09T00:05:36.798Z,86.39
2024-05-09T00:06:35.990Z,86.90
2024-05-09T00:07:35.970Z,87.20
2024-05-09T00:08:36.014Z,87.20
2024-05-09T00:09:35.959Z,87.20
2024-05-09T00:10:38.436Z,87.30
2024-05-09T00:11:36.039Z,86.80
2024-05-09T00:12:35.916Z,87.10
2024-05-09T00:13:35.914Z,87.30
2024-05-09T00:14:35.936Z,87.61
2024-05-09T00:15:36.515Z,87.71
2024-05-09T00:16:35.856Z,87.30
2024-05-09T00:17:36.073Z,87.82
2024-05-09T00:18:35.905Z,88.02
2024-05-09T00:19:35.906Z,87.41
2024-05-09T00:20:39.488Z,87.51
2024-05-09T00:21:35.782Z,87.24
2024-05-09T00:22:35.766Z,87.65
2024-05-09T00:23:35.920Z,87.14
2024-05-09T00:24:35.757Z,87.04
2024-05-09T00:25:36.072Z,87.14
2024-05-09T00:26:35.768Z,87.24
2024-05-09T00:27:35.710Z,88.37
2024-05-09T00:28:35.696Z,88.17
2024-05-09T00:29:35.724Z,87.96
2024-05-09T00:30:37.150Z,88.06
2024-05-09T00:31:35.634Z,88.37
2024-05-09T00:32:35.759Z,88.31
2024-05-09T00:33:35.770Z,88.51
2024-05-09T00:34:35.624Z,89.12
2024-05-09T00:35:35.901Z,89.26
2024-05-09T00:36:35.582Z,89.88
2024-05-09T00:37:35.557Z,89.98
2024-05-09T00:38:42.157Z,89.78
2024-05-09T00:39:35.534Z,89.78
2024-05-09T00:40:39.698Z,90.29
2024-05-09T00:41:35.602Z,89.63
2024-05-09T00:42:35.502Z,89.12
2024-05-09T00:43:35.485Z,89.12
2024-05-09T00:44:35.587Z,89.02
2024-05-09T00:45:35.498Z,89.63
2024-05-09T00:46:35.488Z,89.63
2024-05-09T00:47:35.524Z,88.71
2024-05-09T00:48:35.575Z,88.71
2024-05-09T00:49:35.546Z,88.92
2024-05-09T00:50:37.094Z,89.43
2024-05-09T00:51:35.370Z,89.43
2024-05-09T00:52:35.364Z,88.82
2024-05-09T00:53:35.457Z,88.61
2024-05-09T00:54:35.347Z,88.82
2024-05-09T00:55:35.480Z,89.06
2024-05-09T00:56:35.404Z,89.32
2024-05-09T00:57:35.296Z,88.92
2024-05-09T00:58:35.308Z,88.71
2024-05-09T00:59:35.371Z,88.61
2024-05-09T01:00:39.487Z,89.32
2024-05-09T01:01:35.416Z,89.43
2024-05-09T01:02:35.508Z,89.02
2024-05-09T01:03:35.554Z,89.23
2024-05-09T01:04:35.251Z,88.71
2024-05-09T01:05:35.698Z,88.92
2024-05-09T01:06:35.170Z,89.17
2024-05-09T01:07:35.185Z,89.43
2024-05-09T01:08:35.251Z,89.37
2024-05-09T01:09:35.131Z,88.96
2024-05-09T01:10:36.510Z,89.26
2024-05-09T01:11:35.192Z,89.17
2024-05-09T01:12:35.181Z,89.88
2024-05-09T01:13:35.106Z,89.78
2024-05-09T01:14:35.086Z,89.47
2024-05-09T01:15:35.766Z,89.47
2024-05-09T01:16:35.045Z,89.06
2024-05-09T01:17:35.263Z,89.17
2024-05-09T01:18:35.161Z,90.08
2024-05-09T01:19:35.153Z,89.78
2024-05-09T01:20:41.433Z,89.26
2024-05-09T01:21:34.978Z,89.51
2024-05-09T01:22:34.957Z,89.51
2024-05-09T01:23:35.123Z,89.72
2024-05-09T01:24:34.944Z,90.17
2024-05-09T01:25:34.927Z,90.47
2024-05-09T01:26:34.968Z,90.68
2024-05-09T01:27:34.889Z,90.99
2024-05-09T01:28:34.884Z,90.88
2024-05-09T01:29:34.918Z,90.88
2024-05-09T01:30:37.101Z,90.78
2024-05-09T01:31:34.865Z,90.33
2024-05-09T01:32:35.173Z,90.12
2024-05-09T01:33:35.017Z,90.43
2024-05-09T01:34:34.805Z,90.33
2024-05-09T01:35:34.854Z,90.43
2024-05-09T01:36:34.760Z,89.82
2024-05-09T01:37:35.108Z,89.82
2024-05-09T01:38:34.811Z,89.61
2024-05-09T01:39:34.738Z,90.33
2024-05-09T01:40:38.641Z,90.12
2024-05-09T01:41:34.782Z,89.72
2024-05-09T01:42:34.706Z,89.61
2024-05-09T01:43:34.663Z,89.97
2024-05-09T01:44:34.741Z,90.47
2024-05-09T01:45:34.664Z,90.58
2024-05-09T01:46:34.633Z,90.58
2024-05-09T01:47:34.864Z,90.58
2024-05-09T01:48:34.712Z,91.09
2024-05-09T01:49:34.891Z,90.58
2024-05-09T01:50:39.477Z,90.27
2024-05-09T01:51:34.559Z,90.06
2024-05-09T01:52:34.547Z,89.97
2024-05-09T01:53:34.721Z,90.06
2024-05-09T01:54:34.547Z,90.17
2024-05-09T01:55:34.531Z,90.27
2024-05-09T01:56:34.635Z,90.47
2024-05-09T01:57:34.474Z,90.78
2024-05-09T01:58:34.474Z,90.68
2024-05-09T01:59:34.474Z,90.68
2024-05-09T02:00:39.740Z,90.78
2024-05-09T02:01:55.520Z,90.68
2024-05-09T02:02:34.490Z,90.27
2024-05-09T02:03:34.606Z,90.27
2024-05-09T02:04:34.494Z,90.27
2024-05-09T02:05:34.500Z,90.27
2024-05-09T02:06:34.349Z,90.27
2024-05-09T02:07:34.375Z,90.31
2024-05-09T02:08:34.504Z,90.21
2024-05-09T02:09:34.310Z,90.72
2024-05-09T02:10:34.306Z,91.44
2024-05-09T02:11:34.344Z,91.13
2024-05-09T02:12:34.428Z,91.44
2024-05-09T02:13:34.262Z,91.44
2024-05-09T02:14:34.336Z,91.03
2024-05-09T02:15:34.225Z,91.44
2024-05-09T02:16:34.231Z,91.33
2024-05-09T02:17:34.347Z,91.54
2024-05-09T02:18:34.257Z,91.54
2024-05-09T02:19:34.381Z,91.13
2024-05-09T02:20:36.652Z,91.33
2024-05-09T02:21:34.169Z,91.03
2024-05-09T02:22:34.139Z,90.72
2024-05-09T02:23:34.197Z,90.82
2024-05-09T02:24:34.121Z,91.07
2024-05-09T02:25:34.347Z,91.07
2024-05-09T02:26:34.141Z,91.58
2024-05-09T02:27:34.100Z,91.73
2024-05-09T02:28:34.055Z,91.93
2024-05-09T02:29:34.088Z,91.83
2024-05-09T02:30:39.747Z,92.03
2024-05-09T02:31:34.034Z,92.34
2024-05-09T02:32:34.188Z,92.44
2024-05-09T02:33:34.118Z,93.06
2024-05-09T02:34:34.026Z,92.34
2024-05-09T02:35:34.137Z,91.93
2024-05-09T02:36:33.975Z,92.14
2024-05-09T02:37:33.936Z,92.18
2024-05-09T02:38:34.018Z,92.65
2024-05-09T02:39:33.899Z,92.65
2024-05-09T02:40:37.869Z,92.34
2024-05-09T02:41:33.975Z,92.03
2024-05-09T02:42:33.872Z,91.83
2024-05-09T02:43:33.841Z,91.93
2024-05-09T02:44:33.904Z,91.93
2024-05-09T02:45:33.858Z,92.14
2024-05-09T02:46:33.816Z,92.55
2024-05-09T02:47:33.966Z,92.03
2024-05-09T02:48:33.841Z,91.93
2024-05-09T02:49:33.992Z,91.73
2024-05-09T02:50:38.401Z,92.14
2024-05-09T02:51:34.129Z,91.52
2024-05-09T02:52:33.945Z,91.52
2024-05-09T02:53:33.887Z,91.52
2024-05-09T02:54:33.905Z,92.03
2024-05-09T02:55:33.721Z,92.03
2024-05-09T02:56:33.831Z,92.18
2024-05-09T02:57:33.671Z,92.59
2024-05-09T02:58:33.661Z,92.08
2024-05-09T02:59:33.687Z,92.28
2024-05-09T03:00:39.311Z,92.28
2024-05-09T03:01:33.786Z,92.43
2024-05-09T03:02:33.926Z,92.63
2024-05-09T03:03:33.978Z,92.74
2024-05-09T03:04:33.687Z,92.94
2024-05-09T03:05:33.720Z,93.15
2024-05-09T03:06:33.539Z,93.04
2024-05-09T03:07:33.528Z,93.15
2024-05-09T03:08:33.598Z,93.25
2024-05-09T03:09:33.503Z,93.45
2024-05-09T03:10:36.587Z,93.25
2024-05-09T03:11:33.572Z,92.63
2024-05-09T03:12:35.121Z,92.63
2024-05-09T03:13:33.443Z,92.83
2024-05-09T03:14:33.531Z,92.69
2024-05-09T03:15:33.408Z,92.28
2024-05-09T03:16:33.438Z,92.08
2024-05-09T03:17:33.684Z,91.97
2024-05-09T03:18:33.491Z,92.69
2024-05-09T03:19:33.553Z,92.08
2024-05-09T03:20:35.543Z,91.77
2024-05-09T03:21:33.335Z,92.08
2024-05-09T03:22:33.324Z,91.67
2024-05-09T03:23:33.343Z,91.36
2024-05-09T03:24:33.291Z,91.36
2024-05-09T03:25:33.489Z,91.67
2024-05-09T03:26:33.316Z,91.16
2024-05-09T03:27:33.632Z,91.05
2024-05-09T03:28:33.243Z,91.46
2024-05-09T03:29:33.409Z,90.95
2024-05-09T03:30:40.515Z,91.36
2024-05-09T03:31:33.231Z,91.50
2024-05-09T03:32:33.323Z,91.91
2024-05-09T03:33:33.416Z,92.22
2024-05-09T03:34:33.153Z,92.53
2024-05-09T03:35:33.213Z,92.49
2024-05-09T03:36:33.136Z,92.28
2024-05-09T03:37:33.138Z,92.28
2024-05-09T03:38:33.233Z,92.08
2024-05-09T03:39:33.108Z,91.87
2024-05-09T03:40:33.085Z,92.18
2024-05-09T03:41:33.214Z,91.87
2024-05-09T03:42:33.056Z,91.56
2024-05-09T03:43:33.074Z,91.42
2024-05-09T03:44:33.104Z,91.22
2024-05-09T03:45:33.002Z,91.11
2024-05-09T03:46:33.002Z,91.42
2024-05-09T03:47:33.108Z,91.26
2024-05-09T03:48:33.087Z,91.16
2024-05-09T03:49:32.998Z,91.36
2024-05-09T03:50:35.692Z,91.46
2024-05-09T03:51:32.930Z,91.46
2024-05-09T03:52:32.920Z,91.67
2024-05-09T03:53:32.954Z,91.46
2024-05-09T03:54:32.884Z,91.77
2024-05-09T03:55:32.895Z,92.18
2024-05-09T03:56:32.956Z,91.67
2024-05-09T03:57:32.861Z,91.67
2024-05-09T03:58:32.846Z,91.77
2024-05-09T03:59:32.916Z,91.67
2024-05-09T04:00:38.064Z,91.77
2024-05-09T04:01:32.915Z,91.77
2024-05-09T04:02:32.894Z,92.18
2024-05-09T04:03:32.974Z,92.08
2024-05-09T04:04:32.858Z,91.87
2024-05-09T04:05:33.131Z,91.36
2024-05-09T04:06:32.724Z,90.95
2024-05-09T04:07:32.730Z,90.84
2024-05-09T04:08:32.815Z,90.95
2024-05-09T04:09:32.690Z,91.09
2024-05-09T04:10:34.391Z,91.30
2024-05-09T04:11:32.778Z,91.71
2024-05-09T04:12:32.713Z,91.91
2024-05-09T04:13:32.632Z,91.75
2024-05-09T04:14:32.657Z,92.06
2024-05-09T04:15:32.767Z,92.36
2024-05-09T04:16:32.590Z,92.78
2024-05-09T04:17:33.099Z,92.78
2024-05-09T04:18:32.617Z,92.88
2024-05-09T04:19:32.780Z,93.29
2024-05-09T04:20:38.209Z,92.68
2024-05-09T04:21:32.536Z,92.47
2024-05-09T04:22:32.519Z,92.36
2024-05-09T04:23:32.548Z,92.57
2024-05-09T04:24:32.473Z,92.78
2024-05-09T04:25:32.516Z,92.68
2024-05-09T04:26:32.554Z,92.57
2024-05-09T04:27:32.445Z,92.57
2024-05-09T04:28:32.424Z,93.25
2024-05-09T04:29:32.457Z,93.45
2024-05-09T04:30:38.091Z,92.94
2024-05-09T04:31:32.393Z,92.83
2024-05-09T04:32:32.591Z,92.74
2024-05-09T04:33:32.594Z,92.83
2024-05-09T04:34:32.464Z,92.69
2024-05-09T04:35:32.586Z,92.28
2024-05-09T04:36:32.318Z,92.08
2024-05-09T04:37:32.311Z,91.87
2024-05-09T04:38:32.418Z,92.08
2024-05-09T04:39:32.284Z,91.97
2024-05-09T04:40:35.533Z,91.77
2024-05-09T04:41:32.329Z,91.56
2024-05-09T04:42:32.234Z,91.46
2024-05-09T04:43:32.674Z,91.67
2024-05-09T04:44:32.275Z,91.77
2024-05-09T04:45:32.263Z,91.97
2024-05-09T04:46:32.184Z,92.08
2024-05-09T04:47:32.364Z,91.97
2024-05-09T04:48:32.407Z,92.18
2024-05-09T04:49:32.175Z,92.08
2024-05-09T04:50:37.168Z,91.87
2024-05-09T04:51:32.120Z,91.67
2024-05-09T04:52:32.102Z,91.77
2024-05-09T04:53:32.177Z,91.67
2024-05-09T04:54:36.264Z,91.46
2024-05-09T04:55:32.076Z,91.67
2024-05-09T04:56:32.140Z,91.56
2024-05-09T04:57:32.036Z,91.56
2024-05-09T04:58:32.024Z,91.36
2024-05-09T04:59:32.122Z,91.46
2024-05-09T05:00:36.525Z,91.87
2024-05-09T05:01:32.037Z,91.46
2024-05-09T05:02:32.016Z,91.36
2024-05-09T05:03:32.333Z,91.77
2024-05-09T05:04:32.039Z,91.77
2024-05-09T05:05:31.981Z,91.67
2024-05-09T05:06:31.930Z,91.56
2024-05-09T05:07:31.919Z,91.67
2024-05-09T05:08:32.120Z,91.67
2024-05-09T05:09:31.867Z,91.36
2024-05-09T05:10:36.103Z,91.26
2024-05-09T05:11:32.099Z,91.05
2024-05-09T05:12:31.964Z,91.05
2024-05-09T05:13:31.821Z,91.36
2024-05-09T05:14:31.885Z,91.87
2024-05-09T05:15:31.792Z,92.18
2024-05-09T05:16:31.783Z,91.87
2024-05-09T05:17:31.946Z,91.97
2024-05-09T05:18:32.354Z,92.38
2024-05-09T05:19:31.851Z,92.49
2024-05-09T05:20:33.829Z,92.49
2024-05-09T05:21:31.788Z,92.49
2024-05-09T05:22:31.687Z,92.28
2024-05-09T05:23:31.740Z,92.28
2024-05-09T05:24:31.691Z,92.18
2024-05-09T05:25:31.661Z,92.18
2024-05-09T05:26:31.751Z,92.08
2024-05-09T05:27:31.625Z,92.08
2024-05-09T05:28:31.676Z,92.08
2024-05-09T05:29:31.635Z,92.38
2024-05-09T05:30:34.710Z,92.49
2024-05-09T05:31:31.613Z,92.69
2024-05-09T05:32:31.658Z,92.65
2024-05-09T05:33:31.857Z,92.55
2024-05-09T05:34:31.546Z,92.03
2024-05-09T05:35:31.764Z,91.69
2024-05-09T05:36:31.516Z,91.38
2024-05-09T05:37:31.490Z,90.97
2024-05-09T05:38:31.584Z,90.97
2024-05-09T05:39:31.482Z,91.17
2024-05-09T05:40:36.480Z,90.72
2024-05-09T05:41:31.512Z,90.62
2024-05-09T05:42:31.471Z,90.31
2024-05-09T05:43:31.427Z,90.11
2024-05-09T05:44:31.548Z,89.90
2024-05-09T05:45:31.403Z,89.80
2024-05-09T05:46:31.387Z,89.59
2024-05-09T05:47:31.559Z,89.70
2024-05-09T05:48:31.432Z,90.00
2024-05-09T05:49:31.423Z,90.21
2024-05-09T05:50:36.007Z,90.62
2024-05-09T05:51:31.319Z,90.72
2024-05-09T05:52:31.288Z,91.23
2024-05-09T05:53:31.361Z,91.13
2024-05-09T05:54:31.251Z,90.82
2024-05-09T05:55:31.306Z,90.62
2024-05-09T05:56:31.376Z,90.62
2024-05-09T05:57:31.219Z,90.62
2024-05-09T05:58:31.221Z,90.62
2024-05-09T05:59:31.206Z,90.72
2024-05-09T06:00:38.130Z,90.82
2024-05-09T06:01:31.275Z,91.03
2024-05-09T06:02:31.242Z,91.23
2024-05-09T06:03:31.308Z,91.23
2024-05-09T06:04:31.246Z,91.33
2024-05-09T06:05:31.130Z,91.23
2024-05-09T06:06:31.208Z,91.33
2024-05-09T06:07:31.090Z,91.54
2024-05-09T06:08:31.124Z,91.44
2024-05-09T06:09:31.062Z,91.23
2024-05-09T06:10:37.954Z,91.29
2024-05-09T06:11:31.204Z,91.39
2024-05-09T06:12:31.062Z,91.19
2024-05-09T06:13:31.044Z,91.19
2024-05-09T06:14:31.133Z,91.05
2024-05-09T06:15:31.037Z,90.74
2024-05-09T06:16:30.987Z,90.33
2024-05-09T06:17:31.093Z,90.29
2024-05-09T06:18:31.137Z,89.98
2024-05-09T06:19:31.092Z,89.58
2024-05-09T06:20:36.331Z,89.12
2024-05-09T06:21:30.892Z,89.12
2024-05-09T06:22:30.882Z,88.82
2024-05-09T06:23:30.913Z,88.71
2024-05-09T06:24:30.838Z,88.71
2024-05-09T06:25:30.850Z,88.71
2024-05-09T06:26:30.906Z,88.67
2024-05-09T06:27:30.805Z,88.57
2024-05-09T06:28:30.815Z,88.47
2024-05-09T06:29:30.852Z,88.57
2024-05-09T06:30:38.176Z,88.67
2024-05-09T06:31:30.761Z,88.88
2024-05-09T06:32:30.857Z,88.88
2024-05-09T06:33:31.017Z,88.73
2024-05-09T06:34:30.785Z,88.32
2024-05-09T06:35:31.022Z,88.12
2024-05-09T06:36:30.693Z,87.92
2024-05-09T06:37:30.677Z,88.22
2024-05-09T06:38:30.723Z,88.12
2024-05-09T06:39:30.654Z,87.92
2024-05-09T06:40:37.189Z,87.67
2024-05-09T06:41:30.692Z,87.67
2024-05-09T06:42:30.615Z,87.77
2024-05-09T06:43:30.622Z,87.57
2024-05-09T06:44:30.678Z,87.37
2024-05-09T06:45:30.575Z,87.37
2024-05-09T06:46:30.547Z,87.53
2024-05-09T06:47:30.701Z,87.12
2024-05-09T06:48:30.687Z,86.92
2024-05-09T06:49:30.630Z,86.61
2024-05-09T06:50:36.855Z,86.16
2024-05-09T06:51:30.505Z,86.06
2024-05-09T06:52:30.492Z,86.06
2024-05-09T06:53:30.482Z,85.86
2024-05-09T06:54:30.438Z,85.86
2024-05-09T06:55:30.495Z,85.66
2024-05-09T06:56:30.508Z,85.96
2024-05-09T06:57:30.420Z,85.61
2024-05-09T06:58:30.391Z,85.51
2024-05-09T06:59:30.467Z,85.31
2024-05-09T07:00:37.872Z,85.21
2024-05-09T07:01:30.384Z,85.00
2024-05-09T07:02:30.450Z,84.80
2024-05-09T07:03:30.475Z,84.66
2024-05-09T07:04:30.475Z,84.86
2024-05-09T07:05:30.376Z,84.35
2024-05-09T07:06:30.291Z,84.15
2024-05-09T07:07:30.267Z,84.05
2024-05-09T07:08:30.278Z,84.01
2024-05-09T07:09:30.268Z,83.60
2024-05-09T07:10:34.857Z,83.50
2024-05-09T07:11:30.378Z,83.40
2024-05-09T07:12:30.333Z,83.50
2024-05-09T07:13:30.193Z,83.70
2024-05-09T07:14:30.346Z,83.29
2024-05-09T07:15:30.180Z,83.09
2024-05-09T07:16:30.147Z,83.29
2024-05-09T07:17:30.297Z,83.29
2024-05-09T07:18:30.266Z,83.26
2024-05-09T07:19:30.221Z,82.54
2024-05-09T07:20:34.568Z,81.70
2024-05-09T07:21:30.083Z,80.64
2024-05-09T07:22:30.219Z,80.30
2024-05-09T07:23:30.083Z,79.35
2024-05-09T07:24:30.047Z,78.50
2024-05-09T07:25:30.595Z,78.40
2024-05-09T07:26:30.091Z,78.13
2024-05-09T07:27:30.235Z,79.14
2024-05-09T07:28:29.988Z,79.04
2024-05-09T07:29:30.064Z,79.25
2024-05-09T07:30:33.601Z,79.28
2024-05-09T07:31:29.952Z,79.28
2024-05-09T07:32:30.029Z,79.69
2024-05-09T07:33:30.095Z,80.10
2024-05-09T07:34:30.009Z,79.83
2024-05-09T07:35:30.404Z,79.83
2024-05-09T07:36:29.876Z,79.90
2024-05-09T07:37:29.906Z,80.10
2024-05-09T07:38:29.865Z,80.30
2024-05-09T07:39:29.834Z,79.59
2024-05-09T07:40:35.805Z,79.69
2024-05-09T07:41:29.879Z,79.25
2024-05-09T07:42:29.830Z,78.64
2024-05-09T07:43:29.792Z,78.44
2024-05-09T07:44:29.876Z,78.33
2024-05-09T07:45:45.890Z,78.44
2024-05-09T07:47:36.956Z,78.33
2024-05-09T07:50:53.206Z,77.99
2024-05-09T07:53:32.541Z,77.89
2024-05-09T07:53:49.433Z,76.84
2024-05-09T07:54:00.487Z,76.43
2024-05-09T07:55:33.093Z,75.52
2024-05-09T07:56:34.061Z,75.32
2024-05-09T07:57:33.830Z,75.08
2024-05-09T07:58:33.809Z,74.98
2024-05-09T07:59:37.639Z,74.68
2024-05-09T08:00:33.838Z,74.98
2024-05-09T08:01:33.940Z,74.44
2024-05-09T08:02:33.926Z,74.33
2024-05-09T08:03:33.992Z,74.33
2024-05-09T08:04:34.140Z,73.49
2024-05-09T08:05:33.782Z,73.39
2024-05-09T08:06:33.739Z,73.19
2024-05-09T08:07:33.633Z,73.19
2024-05-09T08:08:33.672Z,73.39
2024-05-09T08:09:35.561Z,72.95
2024-05-09T08:10:33.655Z,73.56
2024-05-09T08:11:33.593Z,74.27
2024-05-09T08:12:33.694Z,74.37
2024-05-09T08:13:33.559Z,73.96
2024-05-09T08:14:33.559Z,73.66
2024-05-09T08:15:33.580Z,73.72
2024-05-09T08:16:33.564Z,73.12
2024-05-09T08:17:33.586Z,72.92
2024-05-09T08:18:33.730Z,73.02
2024-05-09T08:19:33.521Z,71.70
2024-05-09T08:20:35.343Z,71.60
2024-05-09T08:21:33.528Z,71.60
2024-05-09T08:22:33.487Z,71.67
2024-05-09T08:23:33.432Z,71.47
2024-05-09T08:24:33.474Z,71.26
2024-05-09T08:25:33.439Z,70.93
2024-05-09T08:26:33.408Z,70.53
2024-05-09T08:27:33.381Z,70.83
2024-05-09T08:28:33.401Z,71.03
2024-05-09T08:29:33.346Z,70.12
2024-05-09T08:30:37.096Z,69.71
2024-05-09T08:31:33.401Z,69.82
2024-05-09T08:32:33.447Z,69.82
2024-05-09T08:33:33.596Z,69.68
2024-05-09T08:34:33.310Z,69.58
2024-05-09T08:35:33.287Z,68.87
2024-05-09T08:36:33.318Z,68.54
2024-05-09T08:37:37.926Z,68.64
2024-05-09T08:38:33.213Z,68.54
2024-05-09T08:39:33.268Z,68.04
2024-05-09T08:40:36.052Z,68.13
2024-05-09T08:41:33.198Z,67.10
2024-05-09T08:42:33.238Z,66.62
2024-05-09T08:43:33.147Z,66.72
2024-05-09T08:44:33.182Z,66.72
2024-05-09T08:45:33.168Z,66.49
2024-05-09T08:46:33.176Z,65.88
2024-05-09T08:47:33.346Z,65.78
2024-05-09T08:48:33.328Z,65.99
2024-05-09T08:49:33.099Z,65.88
2024-05-09T08:50:38.660Z,66.29
2024-05-09T08:51:33.065Z,65.88
2024-05-09T08:52:33.067Z,66.08
2024-05-09T08:53:33.028Z,66.08
2024-05-09T08:54:33.091Z,66.59
2024-05-09T08:55:32.996Z,66.29
2024-05-09T08:56:32.993Z,66.05
2024-05-09T08:57:33.008Z,63.56
2024-05-09T08:58:33.005Z,64.37
2024-05-09T08:59:32.949Z,64.75
2024-05-09T09:00:36.983Z,64.14
2024-05-09T09:01:33.023Z,63.43
2024-05-09T09:02:33.171Z,62.83
2024-05-09T09:03:33.065Z,62.63
2024-05-09T09:04:33.160Z,62.52
2024-05-09T09:05:32.997Z,62.52
2024-05-09T09:06:32.881Z,62.80
2024-05-09T09:07:32.847Z,62.80
2024-05-09T09:08:32.838Z,62.70
2024-05-09T09:09:32.849Z,61.99
2024-05-09T09:10:33.554Z,61.59
2024-05-09T09:11:32.842Z,60.25
2024-05-09T09:12:32.899Z,58.84
2024-05-09T09:13:32.809Z,58.54
2024-05-09T09:14:32.968Z,58.23
2024-05-09T09:15:33.131Z,56.72
2024-05-09T09:16:32.789Z,57.32
2024-05-09T09:17:32.834Z,56.60
2024-05-09T09:18:33.178Z,57.20
2024-05-09T09:19:32.758Z,58.01
2024-05-09T09:20:36.518Z,58.81
2024-05-09T09:21:32.798Z,57.23
2024-05-09T09:22:32.641Z,56.82
2024-05-09T09:23:32.735Z,56.62
2024-05-09T09:24:32.811Z,56.52
2024-05-09T09:25:32.593Z,56.29
2024-05-09T09:26:32.602Z,56.20
2024-05-09T09:27:32.573Z,53.17
2024-05-09T09:28:32.601Z,53.17
2024-05-09T09:29:32.524Z,52.77
2024-05-09T09:30:37.304Z,52.37
2024-05-09T09:31:32.579Z,51.97
2024-05-09T09:32:32.627Z,52.34
2024-05-09T09:33:32.998Z,52.94
2024-05-09T09:34:32.692Z,52.74
2024-05-09T09:35:32.472Z,52.64
2024-05-09T09:36:32.512Z,51.43
2024-05-09T09:37:32.441Z,51.81
2024-05-09T09:38:32.604Z,51.71
2024-05-09T09:39:32.553Z,52.62
2024-05-09T09:40:34.812Z,51.79
2024-05-09T09:41:32.447Z,51.59
2024-05-09T09:42:32.446Z,52.01
2024-05-09T09:43:32.367Z,51.51
2024-05-09T09:44:33.056Z,51.91
2024-05-09T09:45:32.419Z,51.11
2024-05-09T09:46:32.404Z,51.91
2024-05-09T09:47:32.425Z,50.60
2024-05-09T09:48:32.512Z,50.81
2024-05-09T09:49:32.363Z,50.89
2024-05-09T09:50:34.798Z,50.68
2024-05-09T09:51:32.276Z,50.38
2024-05-09T09:52:32.653Z,49.68
2024-05-09T09:53:32.231Z,49.18
2024-05-09T09:54:32.262Z,49.18
2024-05-09T09:55:32.171Z,49.65
2024-05-09T09:56:32.324Z,49.22
2024-05-09T09:57:32.228Z,49.53
2024-05-09T09:58:32.204Z,49.01
2024-05-09T09:59:32.117Z,48.60
2024-05-09T10:00:33.602Z,48.60
2024-05-09T10:01:32.160Z,48.18
2024-05-09T10:02:32.300Z,47.97
2024-05-09T10:03:32.351Z,47.77
2024-05-09T10:04:32.203Z,46.89
2024-05-09T10:05:32.266Z,47.70
2024-05-09T10:06:32.099Z,47.50
2024-05-09T10:07:32.078Z,47.80
2024-05-09T10:08:32.004Z,47.70
2024-05-09T10:09:32.099Z,47.47
2024-05-09T10:10:33.215Z,47.30
2024-05-09T10:11:34.894Z,47.38
2024-05-09T10:12:32.035Z,47.07
2024-05-09T10:13:31.995Z,48.38
2024-05-09T10:14:31.971Z,46.75
2024-05-09T10:15:31.960Z,47.96
2024-05-09T10:16:32.003Z,45.65
2024-05-09T10:17:31.993Z,46.55
2024-05-09T10:18:34.125Z,45.84
2024-05-09T10:19:32.091Z,45.84
2024-05-09T10:20:32.858Z,46.25
2024-05-09T10:21:31.913Z,46.33
2024-05-09T10:22:31.846Z,45.12
2024-05-09T10:23:31.824Z,46.12
2024-05-09T10:24:31.891Z,45.90
2024-05-09T10:25:31.941Z,45.90
2024-05-09T10:26:31.789Z,45.80
2024-05-09T10:27:31.814Z,46.53
2024-05-09T10:28:31.801Z,46.23
2024-05-09T10:29:31.790Z,45.75
2024-05-09T10:30:36.082Z,45.95
2024-05-09T10:31:31.763Z,46.15
2024-05-09T10:32:31.828Z,46.04
2024-05-09T10:33:31.808Z,47.47
2024-05-09T10:34:31.914Z,47.07
2024-05-09T10:35:31.678Z,47.45
2024-05-09T10:36:31.675Z,47.05
2024-05-09T10:37:31.733Z,48.93
2024-05-09T10:38:31.612Z,50.34
2024-05-09T10:39:31.693Z,49.93
2024-05-09T10:40:32.190Z,50.74
2024-05-09T10:41:31.599Z,50.34
2024-05-09T10:42:31.641Z,51.04
2024-05-09T10:43:31.583Z,49.54
2024-05-09T10:44:31.568Z,49.84
2024-05-09T10:45:31.555Z,49.63
2024-05-09T10:46:31.618Z,49.71
2024-05-09T10:47:31.569Z,49.51
2024-05-09T10:48:31.575Z,49.91
2024-05-09T10:49:31.511Z,49.51
2024-05-09T10:50:34.251Z,49.56
2024-05-09T10:51:31.450Z,49.66
2024-05-09T10:52:31.426Z,49.96
2024-05-09T10:53:31.439Z,50.13
2024-05-09T10:54:31.438Z,49.54
2024-05-09T10:55:31.436Z,49.41
2024-05-09T10:56:31.404Z,49.71
2024-05-09T10:57:31.417Z,49.31
2024-05-09T10:58:31.347Z,49.01
2024-05-09T10:59:31.364Z,48.99
2024-05-09T11:00:35.759Z,48.69
2024-05-09T11:01:31.433Z,48.76
2024-05-09T11:02:31.449Z,48.07
2024-05-09T11:03:31.424Z,48.36
2024-05-09T11:04:31.375Z,47.56
2024-05-09T11:05:31.417Z,46.98
2024-05-09T11:06:31.243Z,47.11
2024-05-09T11:07:31.275Z,47.13
2024-05-09T11:08:31.231Z,48.25
2024-05-09T11:09:31.266Z,48.75
2024-05-09T11:10:34.100Z,48.58
2024-05-09T11:11:31.220Z,48.16
2024-05-09T11:12:31.168Z,48.25
2024-05-09T11:13:31.434Z,47.96
2024-05-09T11:14:31.121Z,48.93
2024-05-09T11:15:31.153Z,47.83
2024-05-09T11:16:31.183Z,48.01
2024-05-09T11:17:31.199Z,47.31
2024-05-09T11:18:34.838Z,47.35
2024-05-09T11:19:31.165Z,48.68
2024-05-09T11:20:34.824Z,49.91
2024-05-09T11:21:31.071Z,48.80
2024-05-09T11:22:31.037Z,49.33
2024-05-09T11:23:31.117Z,48.90
2024-05-09T11:24:31.018Z,49.02
2024-05-09T11:25:30.976Z,49.01
2024-05-09T11:26:30.985Z,49.40
2024-05-09T11:27:31.001Z,48.50
2024-05-09T11:28:30.950Z,48.50
2024-05-09T11:29:30.987Z,48.30
2024-05-09T11:30:32.347Z,47.80
2024-05-09T11:31:31.090Z,48.00
2024-05-09T11:32:31.129Z,47.19
2024-05-09T11:33:31.086Z,47.70
2024-05-09T11:34:30.901Z,47.97
2024-05-09T11:35:30.845Z,47.17
2024-05-09T11:36:30.874Z,46.17
2024-05-09T11:37:32.675Z,46.27
2024-05-09T11:38:30.834Z,46.87
2024-05-09T11:39:31.189Z,47.15
2024-05-09T11:41:30.842Z,46.45
2024-05-09T11:42:30.849Z,46.73
2024-05-09T11:43:30.909Z,46.93
2024-05-09T11:44:30.729Z,46.50
2024-05-09T11:45:30.756Z,45.10
2024-05-09T11:46:30.749Z,46.30
2024-05-09T11:47:30.852Z,46.08
2024-05-09T11:48:30.966Z,45.68
2024-05-09T11:49:31.264Z,45.96
2024-05-09T11:50:35.269Z,45.24
2024-05-09T11:51:30.685Z,44.21
2024-05-09T11:52:30.626Z,44.82
2024-05-09T11:53:30.633Z,44.12
2024-05-09T11:54:30.671Z,43.54
2024-05-09T11:55:30.708Z,44.24
2024-05-09T11:57:07.978Z,45.16
2024-05-09T11:58:09.008Z,44.34
2024-05-09T11:59:08.916Z,43.84
2024-05-09T12:00:11.876Z,44.01
2024-05-09T12:01:09.000Z,43.21
2024-05-09T12:02:09.039Z,43.49
2024-05-09T12:03:09.147Z,44.07
2024-05-09T12:04:09.179Z,43.35
2024-05-09T12:05:08.908Z,43.53
2024-05-09T12:06:08.880Z,41.24
2024-05-09T12:07:12.208Z,41.61
2024-05-09T12:08:08.808Z,41.09
2024-05-09T12:09:08.790Z,40.30
2024-05-09T12:10:14.176Z,40.42
2024-05-09T12:11:08.855Z,40.64
2024-05-09T12:12:09.223Z,42.24
2024-05-09T12:13:08.819Z,41.03
2024-05-09T12:14:08.719Z,40.34
2024-05-09T12:15:08.741Z,40.66
2024-05-09T12:16:08.817Z,40.56
2024-05-09T12:17:08.700Z,42.95
2024-05-09T12:18:08.825Z,43.55
2024-05-09T12:19:08.796Z,46.13
2024-05-09T12:20:14.296Z,42.71
2024-05-09T12:21:08.626Z,42.11
2024-05-09T12:22:08.813Z,42.32
2024-05-09T12:23:10.183Z,41.91
2024-05-09T12:24:08.599Z,40.92
2024-05-09T12:25:08.674Z,42.24
2024-05-09T12:26:08.569Z,42.54
2024-05-09T12:27:08.575Z,42.43
2024-05-09T12:28:08.905Z,42.83
2024-05-09T12:29:08.524Z,41.53
2024-05-09T12:30:11.379Z,42.03
2024-05-09T12:31:08.540Z,41.33
2024-05-09T12:32:08.581Z,43.25
2024-05-09T12:33:09.160Z,43.67
2024-05-09T12:34:08.615Z,42.90
2024-05-09T12:35:08.428Z,43.49
2024-05-09T12:36:08.436Z,44.39
2024-05-09T12:37:08.421Z,43.09
2024-05-09T12:38:08.405Z,43.29
2024-05-09T12:39:08.376Z,42.90
2024-05-09T12:40:15.844Z,42.99
2024-05-09T12:41:08.380Z,42.90
2024-05-09T12:42:09.745Z,42.40
2024-05-09T12:43:09.722Z,42.49
2024-05-09T12:44:08.324Z,42.73
2024-05-09T12:45:08.294Z,42.99
2024-05-09T12:46:08.405Z,41.97
2024-05-09T12:47:08.286Z,39.64
2024-05-09T12:48:08.884Z,40.94
2024-05-09T12:49:08.337Z,39.72
2024-05-09T12:50:15.735Z,41.89
2024-05-09T12:51:08.251Z,37.70
2024-05-09T12:52:08.321Z,38.29
2024-05-09T12:53:08.239Z,38.59
2024-05-09T12:54:08.208Z,37.90
2024-05-09T12:55:08.228Z,37.71
2024-05-09T12:56:09.453Z,38.81
2024-05-09T12:57:08.150Z,38.11
2024-05-09T12:58:08.678Z,39.83